Barr, Illinois
Current Conditions -  °F | °C
As of 10:35 PM on Wednesday 26 Nov 2014 (Local Time) from K3LF Reporting Station
Light Snow Light Snow  
Wind Chill: 20°   Ceiling: 600
Heat Index: 29°   Visibility: 3mi
Dew Point: 27°   Wind: 10mph
Humidity: 92%   Direction: 10°N
Pressure: 30.16"   Gusts: NA
Location:  39.3923°N, 89.9237°W
Report Text: K3LF 270435Z AUTO 01009KT 3SM -SN OVC006 M02/M03 A3016 RMK AO2 P0001 T10171028
Loading
Personal Weather Stations






























Interactive Weather Map New forecast layout! Learn more

10-Day Weather Forecast

Advertisements
Track Severe Weather on mobile